Time;durP1;ratioP1;P1;durP2;ratioP2;P2;SDS_P1;SDS_P2;PMS_P1;PMS_P2;Temp;Humidity;BMP_temperature;BMP_pressure;BME280_temperature;BME280_humidity;BME280_pressure;Samples;Min_cycle;Max_cycle;Signal;HPM_P1;HPM_P2
2021/01/07 00:01:22;;;;;;;;;;;13.20;51.00;;;;;;5113749;28;19927;-76
2021/01/07 00:03:48;;;;;;;;;;;13.00;49.70;;;;;;5113961;28;19928;-75
2021/01/07 00:06:14;;;;;;;;;;;12.90;51.50;;;;;;5095740;28;19942;-76
2021/01/07 00:08:41;;;;;;;;;;;12.70;51.70;;;;;;5125984;27;19930;-76
2021/01/07 00:11:08;;;;;;;;;;;12.70;52.00;;;;;;5134273;27;19924;-76
2021/01/07 00:13:35;;;;;;;;;;;12.50;52.80;;;;;;5133976;27;19954;-76
2021/01/07 00:16:02;;;;;;;;;;;12.50;50.70;;;;;;5129866;27;19923;-76
2021/01/07 00:18:28;;;;;;;;;;;12.50;52.70;;;;;;5113534;28;19924;-76
2021/01/07 00:20:55;;;;;;;;;;;12.60;51.70;;;;;;5113535;28;20361;-75
2021/01/07 00:23:22;;;;;;;;;;;12.70;52.00;;;;;;5113334;28;19923;-76
2021/01/07 00:25:49;;;;;;;;;;;12.70;50.90;;;;;;5095402;28;19947;-76
2021/01/07 00:28:16;;;;;;;;;;;12.70;51.90;;;;;;5113588;28;20303;-76
2021/01/07 00:30:43;;;;;;;;;;;12.80;51.50;;;;;;5113660;28;19950;-76
2021/01/07 00:33:11;;;;;;;;;;;12.70;52.00;;;;;;5113304;28;19939;-76
2021/01/07 00:35:37;;;;;;;;;;;12.80;52.00;;;;;;5113270;28;19951;-76
2021/01/07 00:38:04;;;;;;;;;;;12.90;51.60;;;;;;5113250;28;19943;-75
2021/01/07 00:40:31;;;;;;;;;;;13.00;51.60;;;;;;5112887;28;19924;-76
2021/01/07 00:42:57;;;;;;;;;;;12.90;51.50;;;;;;5112761;28;20426;-76
2021/01/07 00:45:23;;;;;;;;;;;13.00;51.10;;;;;;5112964;28;19924;-76
2021/01/07 00:47:50;;;;;;;;;;;13.00;51.20;;;;;;5113161;28;19931;-76
2021/01/07 00:50:16;;;;;;;;;;;13.10;51.40;;;;;;5112531;28;20558;-75
2021/01/07 00:52:42;;;;;;;;;;;13.10;51.00;;;;;;5112841;28;20037;-76
2021/01/07 00:55:10;;;;;;;;;;;13.20;50.90;;;;;;5112664;28;19923;-76
2021/01/07 00:57:37;;;;;;;;;;;13.10;51.20;;;;;;5113000;28;19980;-76
2021/01/07 01:00:07;;;;;;;;;;;13.20;51.10;;;;;;5112978;28;19950;-76
2021/01/07 01:02:33;;;;;;;;;;;13.10;51.10;;;;;;5112629;28;19931;-77
2021/01/07 01:04:59;;;;;;;;;;;13.10;51.20;;;;;;5112982;28;19923;-76
2021/01/07 01:07:26;;;;;;;;;;;13.20;50.90;;;;;;5114532;27;19951;-76
2021/01/07 01:09:53;;;;;;;;;;;13.20;50.90;;;;;;5133256;27;19924;-76
2021/01/07 01:12:19;;;;;;;;;;;13.20;51.00;;;;;;5133271;27;19924;-76
2021/01/07 01:14:46;;;;;;;;;;;13.10;51.10;;;;;;5132683;27;19924;-76
2021/01/07 01:17:12;;;;;;;;;;;13.00;51.20;;;;;;5118869;27;19924;-76
2021/01/07 01:19:39;;;;;;;;;;;12.90;51.30;;;;;;5112435;28;19931;-76
2021/01/07 01:22:05;;;;;;;;;;;12.70;51.80;;;;;;5112124;28;19930;-76
2021/01/07 01:24:31;;;;;;;;;;;12.70;52.00;;;;;;5112494;28;20384;-76
2021/01/07 01:27:01;;;;;;;;;;;12.70;51.70;;;;;;5094294;28;19924;-76
2021/01/07 01:29:27;;;;;;;;;;;12.70;52.40;;;;;;5112113;28;19928;-76
2021/01/07 01:31:54;;;;;;;;;;;12.80;52.20;;;;;;5112140;28;19923;-76
2021/01/07 01:34:21;;;;;;;;;;;12.80;51.80;;;;;;5111831;28;19924;-76
2021/01/07 01:36:48;;;;;;;;;;;12.70;50.90;;;;;;5111950;28;20010;-76
2021/01/07 01:39:15;;;;;;;;;;;12.60;52.30;;;;;;5112025;28;19931;-76
2021/01/07 01:41:42;;;;;;;;;;;12.60;51.80;;;;;;5093867;28;19932;-76
2021/01/07 01:44:08;;;;;;;;;;;12.60;52.30;;;;;;5111635;28;19924;-76
2021/01/07 01:46:35;;;;;;;;;;;12.60;52.30;;;;;;5112347;28;20161;-76
2021/01/07 01:49:01;;;;;;;;;;;12.60;52.40;;;;;;5111580;28;19930;-76
2021/01/07 01:51:29;;;;;;;;;;;12.70;52.40;;;;;;5111415;28;19927;-76
2021/01/07 01:53:55;;;;;;;;;;;12.90;52.00;;;;;;5111687;28;20299;-75
2021/01/07 01:56:23;;;;;;;;;;;12.50;51.80;;;;;;5111396;28;19971;-78
2021/01/07 01:58:52;;;;;;;;;;;12.60;52.20;;;;;;5111475;28;19924;-76
2021/01/07 02:01:19;;;;;;;;;;;12.80;51.70;;;;;;5111377;28;19924;-75
2021/01/07 02:03:48;;;;;;;;;;;12.90;51.40;;;;;;5111379;28;19924;-76
2021/01/07 02:06:16;;;;;;;;;;;12.90;51.30;;;;;;5111559;28;19924;-76
2021/01/07 02:08:43;;;;;;;;;;;12.90;51.30;;;;;;5123996;27;19935;-76
2021/01/07 02:11:10;;;;;;;;;;;13.00;50.90;;;;;;5113749;27;19930;-76
2021/01/07 02:13:38;;;;;;;;;;;13.00;51.10;;;;;;5131845;27;19923;-76
2021/01/07 02:16:05;;;;;;;;;;;13.00;51.10;;;;;;5126890;27;19924;-76
2021/01/07 02:18:31;;;;;;;;;;;13.00;51.10;;;;;;5110948;28;19947;-76
2021/01/07 02:20:58;;;;;;;;;;;13.00;50.70;;;;;;5111284;28;19943;-76
2021/01/07 02:23:25;;;;;;;;;;;13.10;51.20;;;;;;5111166;28;19924;-76
2021/01/07 02:25:51;;;;;;;;;;;13.20;50.80;;;;;;5110973;28;19939;-76
2021/01/07 02:28:18;;;;;;;;;;;13.30;50.50;;;;;;5111129;28;19924;-76
2021/01/07 02:30:44;;;;;;;;;;;13.40;50.40;;;;;;5110777;28;19931;-76
2021/01/07 02:33:11;;;;;;;;;;;13.50;50.00;;;;;;5110887;28;19932;-76
2021/01/07 02:35:37;;;;;;;;;;;13.40;49.60;;;;;;5110571;28;19947;-76
2021/01/07 02:38:04;;;;;;;;;;;13.30;49.70;;;;;;5110757;28;19924;-76
2021/01/07 02:40:30;;;;;;;;;;;13.20;50.90;;;;;;5110725;28;19923;-76
2021/01/07 02:42:57;;;;;;;;;;;13.20;50.40;;;;;;5110846;28;20405;-76
2021/01/07 02:45:23;;;;;;;;;;;13.10;50.00;;;;;;5110562;28;19931;-76
2021/01/07 02:47:49;;;;;;;;;;;13.00;50.90;;;;;;5110668;28;19928;-76
2021/01/07 02:50:16;;;;;;;;;;;13.00;50.60;;;;;;5110537;28;20062;-76
2021/01/07 02:52:42;;;;;;;;;;;13.00;50.50;;;;;;5110418;28;20371;-76
2021/01/07 02:55:09;;;;;;;;;;;13.00;50.30;;;;;;5110882;28;19924;-76
2021/01/07 02:57:35;;;;;;;;;;;13.00;50.90;;;;;;5110629;28;19923;-76
2021/01/07 03:00:02;;;;;;;;;;;12.90;50.30;;;;;;5110462;28;19923;-76
2021/01/07 03:02:28;;;;;;;;;;;12.90;50.40;;;;;;5110443;28;20588;-76
2021/01/07 03:04:55;;;;;;;;;;;13.00;51.00;;;;;;5110326;28;19924;-76
2021/01/07 03:07:21;;;;;;;;;;;12.90;50.40;;;;;;5110552;27;19924;-76
2021/01/07 03:09:47;;;;;;;;;;;13.00;50.60;;;;;;5130668;27;20394;-76
2021/01/07 03:12:14;;;;;;;;;;;13.00;50.80;;;;;;5130751;27;20022;-76
2021/01/07 03:14:41;;;;;;;;;;;13.10;50.60;;;;;;5130713;27;19935;-76
2021/01/07 03:17:08;;;;;;;;;;;13.20;50.20;;;;;;5099249;28;20094;-76
2021/01/07 03:19:34;;;;;;;;;;;13.30;50.00;;;;;;5110701;28;19928;-76
2021/01/07 03:22:02;;;;;;;;;;;13.40;49.10;;;;;;5110385;28;20189;-76
2021/01/07 03:24:29;;;;;;;;;;;13.40;49.80;;;;;;5110088;28;19924;-76
2021/01/07 03:26:55;;;;;;;;;;;13.30;48.70;;;;;;5092222;28;20322;-76
2021/01/07 03:29:22;;;;;;;;;;;13.30;50.00;;;;;;5092169;28;19924;-75
2021/01/07 03:31:48;;;;;;;;;;;13.20;49.30;;;;;;5110187;28;20406;-75
2021/01/07 03:34:15;;;;;;;;;;;13.20;50.50;;;;;;5110155;28;19945;-75
2021/01/07 03:36:42;;;;;;;;;;;13.10;49.40;;;;;;5109862;28;20434;-75
2021/01/07 03:39:08;;;;;;;;;;;13.00;50.00;;;;;;5110130;28;19931;-75
2021/01/07 03:41:34;;;;;;;;;;;12.90;50.20;;;;;;5110384;28;20334;-75
2021/01/07 03:44:01;;;;;;;;;;;12.80;50.30;;;;;;5109689;28;19928;-75
2021/01/07 03:46:27;;;;;;;;;;;12.80;50.80;;;;;;5110029;28;19951;-75
2021/01/07 03:48:53;;;;;;;;;;;12.80;50.60;;;;;;5109975;28;19930;-75
2021/01/07 03:51:20;;;;;;;;;;;12.70;50.50;;;;;;5109543;28;20432;-75
2021/01/07 03:53:46;;;;;;;;;;;12.60;50.90;;;;;;5110124;28;19931;-75
2021/01/07 03:56:13;;;;;;;;;;;12.60;50.70;;;;;;5109905;28;19927;-75
2021/01/07 03:58:39;;;;;;;;;;;12.70;50.80;;;;;;5109971;28;19924;-75
2021/01/07 04:01:05;;;;;;;;;;;12.60;50.70;;;;;;5109678;28;19924;-75
2021/01/07 04:03:32;;;;;;;;;;;12.50;51.00;;;;;;5109778;28;19923;-75
2021/01/07 04:05:58;;;;;;;;;;;12.50;51.10;;;;;;5109875;28;19947;-75
2021/01/07 04:08:28;;;;;;;;;;;12.50;51.50;;;;;;5102454;28;19923;-75
2021/01/07 04:10:55;;;;;;;;;;;12.30;51.80;;;;;;5130147;28;19930;-75
2021/01/07 04:13:21;;;;;;;;;;;12.30;51.60;;;;;;5130228;28;20292;-75
2021/01/07 04:15:48;;;;;;;;;;;12.60;52.00;;;;;;5128218;28;19927;-75
2021/01/07 04:18:14;;;;;;;;;;;12.60;51.20;;;;;;5109976;28;19931;-75
2021/01/07 04:20:40;;;;;;;;;;;12.60;51.50;;;;;;5113294;28;19924;-75
2021/01/07 04:23:06;;;;;;;;;;;12.70;51.10;;;;;;5095614;28;19950;-75
2021/01/07 04:25:33;;;;;;;;;;;12.80;50.90;;;;;;5095366;28;20124;-75
2021/01/07 04:27:59;;;;;;;;;;;12.80;50.20;;;;;;5113594;28;19924;-75
2021/01/07 04:30:26;;;;;;;;;;;12.80;50.60;;;;;;5113388;28;19941;-75
2021/01/07 04:32:52;;;;;;;;;;;12.80;50.00;;;;;;5113440;28;19935;-75
2021/01/07 04:35:18;;;;;;;;;;;12.80;50.80;;;;;;5113060;28;20375;-75
2021/01/07 04:37:44;;;;;;;;;;;12.90;50.50;;;;;;5113483;28;20156;-75
2021/01/07 04:40:11;;;;;;;;;;;12.90;50.00;;;;;;5113285;28;19931;-75
2021/01/07 04:42:38;;;;;;;;;;;12.80;50.70;;;;;;5113270;28;19939;-75
2021/01/07 04:45:04;;;;;;;;;;;12.90;50.60;;;;;;5112992;28;19923;-75
2021/01/07 04:47:31;;;;;;;;;;;13.10;50.00;;;;;;5113296;28;19930;-75
2021/01/07 04:49:58;;;;;;;;;;;13.10;49.40;;;;;;5112930;28;19928;-75
2021/01/07 04:52:24;;;;;;;;;;;13.10;49.20;;;;;;5113000;28;19924;-76
2021/01/07 04:54:53;;;;;;;;;;;12.90;50.60;;;;;;5113097;28;19923;-75
2021/01/07 04:57:20;;;;;;;;;;;13.00;50.20;;;;;;5112867;28;19924;-75
2021/01/07 04:59:46;;;;;;;;;;;13.10;49.10;;;;;;5113086;28;19924;-75
2021/01/07 05:02:16;;;;;;;;;;;13.10;50.00;;;;;;5112731;28;20400;-78
2021/01/07 05:04:49;;;;;;;;;;;13.30;49.50;;;;;;5113100;28;19924;-77
2021/01/07 05:07:16;;;;;;;;;;;13.20;49.60;;;;;;5112908;27;19931;-76
2021/01/07 05:09:43;;;;;;;;;;;13.40;49.60;;;;;;5133729;27;20178;-76
2021/01/07 05:12:10;;;;;;;;;;;13.40;49.50;;;;;;5133327;27;19924;-75
2021/01/07 05:14:43;;;;;;;;;;;13.30;49.00;;;;;;5133044;27;19935;-76
2021/01/07 05:17:13;;;;;;;;;;;13.40;49.50;;;;;;5119005;27;19924;-76
2021/01/07 05:19:39;;;;;;;;;;;13.50;49.10;;;;;;5112146;28;19931;-76
2021/01/07 05:22:06;;;;;;;;;;;13.50;48.60;;;;;;5112372;28;20396;-76
2021/01/07 05:24:33;;;;;;;;;;;13.50;48.50;;;;;;5112638;28;19924;-77
2021/01/07 05:27:09;;;;;;;;;;;13.40;49.00;;;;;;5112325;28;20411;-77
2021/01/07 05:29:36;;;;;;;;;;;13.40;49.10;;;;;;5112138;28;20292;-76
2021/01/07 05:32:02;;;;;;;;;;;13.40;48.80;;;;;;5111382;28;19930;-77
2021/01/07 05:34:29;;;;;;;;;;;13.40;48.70;;;;;;5112380;28;19924;-76
2021/01/07 05:36:56;;;;;;;;;;;13.30;48.50;;;;;;5112331;28;19924;-76
2021/01/07 05:39:22;;;;;;;;;;;13.30;48.60;;;;;;5093831;28;19924;-76
2021/01/07 05:41:51;;;;;;;;;;;13.20;48.50;;;;;;5112250;28;19930;-76
2021/01/07 05:44:21;;;;;;;;;;;13.20;49.70;;;;;;5111798;28;20396;-76
2021/01/07 05:46:47;;;;;;;;;;;13.20;49.30;;;;;;5111970;28;19927;-76
2021/01/07 05:49:33;;;;;;;;;;;13.10;49.50;;;;;;5093630;28;19924;-76
2021/01/07 05:51:59;;;;;;;;;;;13.20;49.10;;;;;;5111558;28;19924;-76
2021/01/07 05:54:26;;;;;;;;;;;13.30;49.30;;;;;;5111548;28;20244;-75
2021/01/07 05:56:53;;;;;;;;;;;13.40;48.90;;;;;;5111629;28;20420;-76
2021/01/07 05:59:19;;;;;;;;;;;13.50;48.80;;;;;;5111729;28;19924;-76
2021/01/07 06:01:46;;;;;;;;;;;13.60;48.80;;;;;;5111428;28;19923;-76
2021/01/07 06:04:13;;;;;;;;;;;13.70;48.20;;;;;;5111686;28;19924;-76
2021/01/07 06:06:40;;;;;;;;;;;13.50;47.20;;;;;;5111338;28;20012;-76
2021/01/07 06:09:07;;;;;;;;;;;13.10;48.80;;;;;;5127364;27;19924;-76
2021/01/07 06:11:34;;;;;;;;;;;12.90;49.70;;;;;;5132104;27;20379;-76
2021/01/07 06:14:02;;;;;;;;;;;12.90;49.20;;;;;;5131725;27;19923;-76
2021/01/07 06:16:28;;;;;;;;;;;12.90;49.60;;;;;;5123740;27;19930;-75
2021/01/07 06:19:14;;;;;;;;;;;12.90;49.70;;;;;;5111274;28;19924;-75
2021/01/07 06:21:47;;;;;;;;;;;12.90;49.70;;;;;;5111037;28;19930;-75
2021/01/07 06:24:16;;;;;;;;;;;12.90;49.00;;;;;;5111203;28;19924;-75
2021/01/07 06:26:44;;;;;;;;;;;12.90;49.70;;;;;;5111372;28;20327;-75
2021/01/07 06:29:11;;;;;;;;;;;12.80;49.90;;;;;;5111079;28;20378;-75
2021/01/07 06:31:37;;;;;;;;;;;12.80;50.00;;;;;;5110848;28;19934;-76
2021/01/07 06:34:04;;;;;;;;;;;12.70;49.80;;;;;;5111058;28;20587;-75
2021/01/07 06:36:46;;;;;;;;;;;12.80;49.90;;;;;;5110831;28;19927;-76
2021/01/07 06:39:13;;;;;;;;;;;12.80;49.80;;;;;;5110758;28;20495;-78
2021/01/07 06:41:39;;;;;;;;;;;12.70;49.80;;;;;;5110821;28;19923;-75
2021/01/07 06:44:06;;;;;;;;;;;12.50;50.60;;;;;;5110566;28;19923;-76
2021/01/07 06:46:43;;;;;;;;;;;12.10;49.90;;;;;;5110567;28;19930;-75
2021/01/07 06:49:16;;;;;;;;;;;11.90;52.00;;;;;;5110520;28;19924;-75
2021/01/07 06:51:47;;;;;;;;;;;12.10;52.40;;;;;;5092087;28;19931;-76
2021/01/07 06:54:13;;;;;;;;;;;12.40;51.50;;;;;;5110821;28;19951;-75
2021/01/07 06:56:41;;;;;;;;;;;12.50;51.10;;;;;;5110677;28;20292;-75
2021/01/07 06:59:07;;;;;;;;;;;12.70;50.90;;;;;;5092214;28;19939;-75
2021/01/07 07:01:34;;;;;;;;;;;12.90;50.40;;;;;;5092358;28;19928;-75
2021/01/07 07:04:04;;;;;;;;;;;13.00;49.90;;;;;;5110575;28;20018;-75
2021/01/07 07:06:31;;;;;;;;;;;13.10;49.20;;;;;;5110497;28;20376;-75
2021/01/07 07:08:57;;;;;;;;;;;13.00;49.90;;;;;;5125002;27;19938;-75
2021/01/07 07:11:33;;;;;;;;;;;13.10;49.50;;;;;;5130936;27;19924;-75
2021/01/07 07:14:03;;;;;;;;;;;13.20;49.10;;;;;;5130663;27;20388;-75
2021/01/07 07:16:33;;;;;;;;;;;13.20;49.20;;;;;;5122867;27;19927;-75
2021/01/07 07:19:00;;;;;;;;;;;13.20;49.30;;;;;;5110549;28;19923;-75
2021/01/07 07:21:28;;;;;;;;;;;13.40;49.00;;;;;;5110221;28;19924;-75
2021/01/07 07:24:06;;;;;;;;;;;13.30;48.90;;;;;;5092235;28;19930;-75
2021/01/07 07:26:41;;;;;;;;;;;13.40;49.00;;;;;;5110335;28;20003;-76
2021/01/07 07:29:09;;;;;;;;;;;13.50;48.80;;;;;;5110064;28;19938;-75
2021/01/07 07:31:36;;;;;;;;;;;13.60;48.50;;;;;;5092275;28;20010;-78
2021/01/07 07:34:03;;;;;;;;;;;13.70;48.60;;;;;;5109912;28;20497;-75
2021/01/07 07:36:33;;;;;;;;;;;13.70;48.30;;;;;;5091932;28;19923;-75
2021/01/07 07:39:00;;;;;;;;;;;13.70;48.00;;;;;;5110225;28;19947;-78
2021/01/07 07:41:27;;;;;;;;;;;13.70;48.10;;;;;;5110321;28;19924;-76
2021/01/07 07:43:54;;;;;;;;;;;13.70;48.00;;;;;;5109879;28;19923;-75
2021/01/07 07:46:24;;;;;;;;;;;13.70;48.10;;;;;;5110203;28;19924;-75
2021/01/07 07:49:00;;;;;;;;;;;13.80;47.90;;;;;;5109769;28;19924;-75
2021/01/07 07:51:27;;;;;;;;;;;13.70;48.00;;;;;;5109849;28;19927;-75
2021/01/07 07:54:04;;;;;;;;;;;13.60;48.20;;;;;;5111082;28;20124;-75
2021/01/07 07:56:30;;;;;;;;;;;13.50;48.80;;;;;;5095816;28;20384;-75
2021/01/07 07:58:58;;;;;;;;;;;13.60;48.70;;;;;;5113954;28;19934;-75
2021/01/07 08:01:40;;;;;;;;;;;13.70;48.40;;;;;;5113992;28;19924;-75
2021/01/07 08:04:11;;;;;;;;;;;13.70;48.40;;;;;;5114212;28;20036;-75
2021/01/07 08:06:37;;;;;;;;;;;13.80;48.30;;;;;;5114131;28;19923;-75
2021/01/07 08:09:04;;;;;;;;;;;13.70;48.30;;;;;;5129463;27;19938;-75
2021/01/07 08:11:31;;;;;;;;;;;13.70;48.10;;;;;;5134109;27;20414;-75
2021/01/07 08:13:58;;;;;;;;;;;13.80;48.10;;;;;;5134218;27;19943;-76
2021/01/07 08:16:25;;;;;;;;;;;13.80;48.10;;;;;;5127095;27;19923;-75
2021/01/07 08:18:52;;;;;;;;;;;13.90;47.90;;;;;;5113489;28;19924;-75
2021/01/07 08:21:18;;;;;;;;;;;13.80;47.90;;;;;;5095550;28;19928;-75
2021/01/07 08:23:44;;;;;;;;;;;13.80;47.80;;;;;;5113382;28;20445;-75
2021/01/07 08:26:40;;;;;;;;;;;13.80;48.10;;;;;;5113474;28;20097;-75
2021/01/07 08:29:09;;;;;;;;;;;13.60;47.40;;;;;;5092395;28;20319;-76
2021/01/07 08:31:38;;;;;;;;;;;13.60;48.40;;;;;;5113681;28;19924;-75
2021/01/07 08:34:04;;;;;;;;;;;13.50;48.80;;;;;;5113372;28;19924;-75
2021/01/07 08:36:31;;;;;;;;;;;13.60;48.70;;;;;;5113495;28;19931;-76
2021/01/07 08:38:57;;;;;;;;;;;13.50;48.30;;;;;;5113058;28;20391;-75
2021/01/07 08:41:27;;;;;;;;;;;13.40;48.20;;;;;;5113084;28;19924;-75
2021/01/07 08:43:54;;;;;;;;;;;13.50;48.40;;;;;;5112983;28;19924;-75
2021/01/07 08:46:24;;;;;;;;;;;13.50;48.20;;;;;;5113288;28;20400;-75
2021/01/07 08:48:58;;;;;;;;;;;13.60;48.60;;;;;;5113105;28;19932;-75
2021/01/07 08:51:24;;;;;;;;;;;13.70;47.70;;;;;;5112890;28;19939;-75
2021/01/07 08:53:54;;;;;;;;;;;13.50;48.40;;;;;;5112923;28;19930;-75
2021/01/07 08:56:33;;;;;;;;;;;13.60;48.40;;;;;;5112842;28;19924;-75
2021/01/07 08:59:19;;;;;;;;;;;13.70;48.50;;;;;;5113023;28;20387;-75
2021/01/07 09:01:46;;;;;;;;;;;13.70;47.30;;;;;;5112971;28;19928;-75
2021/01/07 09:04:33;;;;;;;;;;;13.50;47.70;;;;;;5112655;28;19924;-75
2021/01/07 09:07:14;;;;;;;;;;;13.10;49.30;;;;;;5112077;28;20297;-76
2021/01/07 09:09:41;;;;;;;;;;;13.20;49.30;;;;;;5112463;28;20490;-75
2021/01/07 09:12:11;;;;;;;;;;;13.30;49.50;;;;;;5112784;28;19924;-75
2021/01/07 09:14:48;;;;;;;;;;;13.30;48.80;;;;;;5112845;28;20292;-75
2021/01/07 09:17:15;;;;;;;;;;;13.50;48.90;;;;;;5126726;27;19939;-75
2021/01/07 09:19:41;;;;;;;;;;;13.60;48.30;;;;;;5132812;27;19923;-75
2021/01/07 09:22:08;;;;;;;;;;;13.70;48.10;;;;;;5133382;27;19934;-75
2021/01/07 09:24:35;;;;;;;;;;;13.70;48.20;;;;;;5132831;27;19927;-75
2021/01/07 09:27:08;;;;;;;;;;;13.70;48.30;;;;;;5133111;27;20461;-75
2021/01/07 09:29:35;;;;;;;;;;;13.50;47.70;;;;;;5114204;27;20303;-75
2021/01/07 09:32:01;;;;;;;;;;;13.40;48.60;;;;;;5133026;27;19931;-75
2021/01/07 09:34:28;;;;;;;;;;;13.30;49.20;;;;;;5132683;27;19924;-75
2021/01/07 09:36:54;;;;;;;;;;;13.20;49.00;;;;;;5112530;27;19932;-75
2021/01/07 09:39:20;;;;;;;;;;;13.30;49.40;;;;;;5112250;28;19931;-76
2021/01/07 09:41:47;;;;;;;;;;;13.40;49.10;;;;;;5112267;28;19927;-76
2021/01/07 09:44:13;;;;;;;;;;;13.40;48.50;;;;;;5130771;27;19930;-75
2021/01/07 09:46:40;;;;;;;;;;;13.50;48.50;;;;;;5132816;27;19923;-75
2021/01/07 09:49:07;;;;;;;;;;;13.50;48.10;;;;;;5132657;27;19971;-75
2021/01/07 09:51:33;;;;;;;;;;;13.40;48.30;;;;;;5132388;27;20295;-75
2021/01/07 09:53:59;;;;;;;;;;;13.40;48.80;;;;;;5132344;27;19984;-75
2021/01/07 09:56:25;;;;;;;;;;;13.40;48.40;;;;;;5113679;27;19928;-76
2021/01/07 09:58:52;;;;;;;;;;;13.20;48.70;;;;;;5132139;27;20307;-75
2021/01/07 10:01:20;;;;;;;;;;;13.20;48.70;;;;;;5132280;27;20336;-75
2021/01/07 10:03:47;;;;;;;;;;;13.20;49.00;;;;;;5132366;27;19930;-75
2021/01/07 10:06:13;;;;;;;;;;;12.90;49.30;;;;;;5132271;27;19947;-75
2021/01/07 10:08:39;;;;;;;;;;;12.90;49.40;;;;;;5120032;27;20280;-75
2021/01/07 10:11:08;;;;;;;;;;;13.00;50.00;;;;;;5111363;28;20357;-77
2021/01/07 10:13:34;;;;;;;;;;;13.00;49.70;;;;;;5111277;28;19928;-75
2021/01/07 10:16:01;;;;;;;;;;;13.30;49.80;;;;;;5115278;27;19927;-75
2021/01/07 10:18:27;;;;;;;;;;;13.00;49.20;;;;;;5131690;27;19923;-75
2021/01/07 10:20:58;;;;;;;;;;;13.10;49.60;;;;;;5131717;27;20422;-75
2021/01/07 10:23:24;;;;;;;;;;;13.10;49.90;;;;;;5132005;27;19924;-75
2021/01/07 10:25:51;;;;;;;;;;;13.20;49.20;;;;;;5131664;27;19923;-75
2021/01/07 10:28:18;;;;;;;;;;;13.40;49.20;;;;;;5131845;27;19927;-76
2021/01/07 10:30:45;;;;;;;;;;;13.30;49.10;;;;;;5131626;27;19923;-76
2021/01/07 10:33:12;;;;;;;;;;;13.40;49.00;;;;;;5131705;27;19930;-76
2021/01/07 10:35:38;;;;;;;;;;;13.40;49.00;;;;;;5122526;27;19928;-76
2021/01/07 10:38:05;;;;;;;;;;;13.20;48.50;;;;;;5111085;28;19924;-76
2021/01/07 10:40:33;;;;;;;;;;;13.00;49.70;;;;;;5110843;28;19924;-76
2021/01/07 10:43:00;;;;;;;;;;;13.10;49.80;;;;;;5119241;27;19935;-76
2021/01/07 10:45:27;;;;;;;;;;;13.10;49.50;;;;;;5131233;27;19931;-75
2021/01/07 10:47:58;;;;;;;;;;;13.00;49.20;;;;;;5131642;27;20307;-76
2021/01/07 10:50:27;;;;;;;;;;;12.90;49.60;;;;;;5131202;27;20073;-75
2021/01/07 10:52:54;;;;;;;;;;;12.90;50.00;;;;;;5130947;27;19927;-76
2021/01/07 10:55:24;;;;;;;;;;;13.00;48.70;;;;;;5131186;27;20183;-76
2021/01/07 10:58:01;;;;;;;;;;;12.70;50.10;;;;;;5130514;27;20256;-76
2021/01/07 11:00:38;;;;;;;;;;;12.70;50.40;;;;;;5118103;27;20300;-75
2021/01/07 11:03:08;;;;;;;;;;;13.00;50.50;;;;;;5120077;27;19923;-75
2021/01/07 11:05:39;;;;;;;;;;;13.60;48.90;;;;;;5116199;27;19935;-74
2021/01/07 11:08:28;;;;;;;;;;;14.00;48.00;;;;;;5117843;27;19923;-76
2021/01/07 11:10:57;;;;;;;;;;;14.30;47.40;;;;;;5119994;27;19976;-73
2021/01/07 11:13:31;;;;;;;;;;;14.40;46.40;;;;;;5118811;27;19950;-74
2021/01/07 11:16:00;;;;;;;;;;;14.60;46.20;;;;;;5120273;27;20363;-74
2021/01/07 11:18:29;;;;;;;;;;;14.80;45.50;;;;;;5117228;27;19923;-75
2021/01/07 11:20:59;;;;;;;;;;;15.00;45.00;;;;;;5119952;27;20549;-74
2021/01/07 11:23:26;;;;;;;;;;;15.00;44.60;;;;;;5105956;27;20022;-74
2021/01/07 11:25:53;;;;;;;;;;;15.20;44.40;;;;;;5130558;27;19923;-73
2021/01/07 11:28:20;;;;;;;;;;;15.30;44.10;;;;;;5129254;27;19923;-74
2021/01/07 11:30:47;;;;;;;;;;;15.40;44.00;;;;;;5123806;27;19931;-74
2021/01/07 11:33:15;;;;;;;;;;;15.30;43.60;;;;;;5099962;28;19924;-74
2021/01/07 11:35:43;;;;;;;;;;;15.30;44.00;;;;;;5100613;28;19924;-74
2021/01/07 11:38:10;;;;;;;;;;;15.00;44.20;;;;;;5117549;28;20034;-74
2021/01/07 11:40:40;;;;;;;;;;;15.10;44.30;;;;;;5119464;28;20410;-75
2021/01/07 11:43:25;;;;;;;;;;;15.10;44.40;;;;;;5113567;28;19924;-75
2021/01/07 11:45:58;;;;;;;;;;;15.20;44.00;;;;;;5109949;28;19924;-75
2021/01/07 11:48:25;;;;;;;;;;;15.30;43.90;;;;;;5110217;28;19931;-76
2021/01/07 11:50:59;;;;;;;;;;;15.20;44.30;;;;;;5109736;28;20388;-76
2021/01/07 11:53:26;;;;;;;;;;;15.20;44.20;;;;;;5109896;28;19924;-75
2021/01/07 11:55:53;;;;;;;;;;;15.10;44.30;;;;;;5110022;28;19993;-75
2021/01/07 11:58:19;;;;;;;;;;;14.90;44.70;;;;;;5109888;28;19932;-75
2021/01/07 12:00:46;;;;;;;;;;;15.00;44.90;;;;;;5109881;28;19924;-75
2021/01/07 12:03:14;;;;;;;;;;;14.90;45.00;;;;;;5109737;28;19923;-75
2021/01/07 12:05:41;;;;;;;;;;;15.00;44.70;;;;;;5112604;28;19931;-77
2021/01/07 12:08:23;;;;;;;;;;;15.10;44.40;;;;;;5117502;28;19924;-75
2021/01/07 12:10:52;;;;;;;;;;;15.10;44.40;;;;;;5130155;28;19937;-76
2021/01/07 12:13:33;;;;;;;;;;;15.20;45.00;;;;;;5112256;28;19923;-78
2021/01/07 12:16:00;;;;;;;;;;;15.20;44.40;;;;;;5108094;28;19947;-77
2021/01/07 12:18:26;;;;;;;;;;;15.10;44.20;;;;;;5109641;28;19931;-76
2021/01/07 12:20:53;;;;;;;;;;;14.90;44.80;;;;;;5109821;28;19923;-78
2021/01/07 12:23:19;;;;;;;;;;;15.00;44.70;;;;;;5109639;28;19931;-76
2021/01/07 12:25:47;;;;;;;;;;;14.80;45.00;;;;;;5091609;28;19931;-79
2021/01/07 12:28:17;;;;;;;;;;;15.00;45.60;;;;;;5109689;28;19924;-75
2021/01/07 12:30:45;;;;;;;;;;;15.00;44.80;;;;;;5110013;28;19924;-75
2021/01/07 12:33:21;;;;;;;;;;;15.10;44.40;;;;;;5109939;28;20269;-75
2021/01/07 12:36:06;;;;;;;;;;;15.10;44.10;;;;;;5118460;28;19931;-76
2021/01/07 12:38:32;;;;;;;;;;;15.20;44.00;;;;;;5112925;28;19946;-74
2021/01/07 12:41:01;;;;;;;;;;;15.20;44.00;;;;;;5133159;27;19923;-78
2021/01/07 12:43:29;;;;;;;;;;;15.30;44.00;;;;;;5106101;28;20314;-75
2021/01/07 12:46:00;;;;;;;;;;;15.10;44.00;;;;;;5113162;28;20397;-75
2021/01/07 12:48:27;;;;;;;;;;;15.20;44.00;;;;;;5113353;28;19962;-76
2021/01/07 12:50:57;;;;;;;;;;;15.30;43.80;;;;;;5112410;28;19930;-75
2021/01/07 12:53:23;;;;;;;;;;;15.40;43.70;;;;;;5133372;27;20410;-75
2021/01/07 12:55:50;;;;;;;;;;;15.50;43.60;;;;;;5130014;27;20290;-74
2021/01/07 12:58:38;;;;;;;;;;;15.50;43.50;;;;;;5133221;27;20313;-75
2021/01/07 13:01:09;;;;;;;;;;;15.60;43.30;;;;;;5125917;27;20191;-74
2021/01/07 13:03:41;;;;;;;;;;;15.70;43.20;;;;;;5126330;27;19934;-75
2021/01/07 13:06:08;;;;;;;;;;;15.70;43.00;;;;;;5130954;27;20241;-76
2021/01/07 13:08:38;;;;;;;;;;;15.80;43.00;;;;;;5121800;27;19934;-74
2021/01/07 13:11:07;;;;;;;;;;;15.80;42.90;;;;;;5094917;28;19924;-74
2021/01/07 13:13:44;;;;;;;;;;;15.60;42.40;;;;;;5112690;28;19923;-74
2021/01/07 13:16:10;;;;;;;;;;;15.50;43.30;;;;;;5117715;27;19924;-75
2021/01/07 13:18:36;;;;;;;;;;;15.60;43.20;;;;;;5132804;27;19927;-75
2021/01/07 13:21:05;;;;;;;;;;;15.50;43.00;;;;;;5132942;27;19930;-75
2021/01/07 13:23:32;;;;;;;;;;;15.70;43.00;;;;;;5110562;27;19942;-74
2021/01/07 13:25:58;;;;;;;;;;;15.70;42.80;;;;;;5124304;27;19943;-75
2021/01/07 13:28:25;;;;;;;;;;;15.50;42.90;;;;;;5131588;27;19934;-77
2021/01/07 13:30:54;;;;;;;;;;;15.20;43.50;;;;;;5113748;27;19927;-75
2021/01/07 13:33:21;;;;;;;;;;;15.30;43.60;;;;;;5133013;27;20311;-75
2021/01/07 13:35:51;;;;;;;;;;;15.40;43.40;;;;;;5132936;27;19934;-74
2021/01/07 13:38:18;;;;;;;;;;;15.50;43.20;;;;;;5132555;27;20271;-74
2021/01/07 13:40:44;;;;;;;;;;;15.50;42.90;;;;;;5132488;27;20353;-74
2021/01/07 13:43:11;;;;;;;;;;;15.40;43.50;;;;;;5132586;27;20418;-75
2021/01/07 13:45:39;;;;;;;;;;;15.30;43.60;;;;;;5132277;27;20402;-75
2021/01/07 13:48:09;;;;;;;;;;;15.50;43.40;;;;;;5132403;27;20299;-77
2021/01/07 13:50:36;;;;;;;;;;;15.50;42.90;;;;;;5114222;27;20295;-76
2021/01/07 13:53:03;;;;;;;;;;;15.50;43.10;;;;;;5113601;27;19930;-76
2021/01/07 13:55:30;;;;;;;;;;;15.20;43.50;;;;;;5118802;27;20384;-77
2021/01/07 13:57:57;;;;;;;;;;;15.30;43.60;;;;;;5111417;28;20554;-75
2021/01/07 14:00:45;;;;;;;;;;;15.40;43.60;;;;;;5117473;27;19995;-75
2021/01/07 14:03:11;;;;;;;;;;;15.50;43.40;;;;;;5132792;27;19923;-76
2021/01/07 14:05:40;;;;;;;;;;;15.50;43.20;;;;;;5132227;27;19935;-76
2021/01/07 14:08:09;;;;;;;;;;;15.60;43.10;;;;;;5124630;27;19931;-77
2021/01/07 14:10:36;;;;;;;;;;;15.60;43.10;;;;;;5111693;28;19923;-77
2021/01/07 14:13:03;;;;;;;;;;;15.60;43.00;;;;;;5118656;27;19923;-76
2021/01/07 14:15:30;;;;;;;;;;;15.50;42.60;;;;;;5131744;27;19927;-75
2021/01/07 14:17:58;;;;;;;;;;;15.50;43.00;;;;;;5110855;28;19939;-76
2021/01/07 14:20:24;;;;;;;;;;;15.60;43.00;;;;;;5111137;28;19923;-75
2021/01/07 14:22:51;;;;;;;;;;;15.60;42.80;;;;;;5111194;28;19931;-76